createdAt,value
2018-12-05T00:02:01.974Z,8.90
2018-12-05T00:05:06.038Z,16.40
2018-12-05T00:08:09.190Z,19.53
2018-12-05T00:11:12.238Z,12.83
2018-12-05T00:14:15.467Z,11.70
2018-12-05T00:17:18.530Z,9.77
2018-12-05T00:20:21.550Z,13.03
2018-12-05T00:23:25.534Z,11.80
2018-12-05T00:26:28.551Z,11.50
2018-12-05T00:29:31.514Z,18.40
2018-12-05T00:32:34.574Z,8.17
2018-12-05T00:35:37.594Z,7.07
2018-12-05T00:38:40.614Z,16.20
2018-12-05T00:41:43.574Z,11.53
2018-12-05T00:44:46.678Z,9.60
2018-12-05T00:47:51.710Z,13.07
2018-12-05T00:50:54.818Z,15.17
2018-12-05T00:53:57.785Z,12.70
2018-12-05T00:57:00.915Z,19.87
2018-12-05T01:00:05.127Z,12.50
2018-12-05T01:03:08.243Z,11.03
2018-12-05T01:06:11.286Z,15.73
2018-12-05T01:09:14.310Z,14.77
2018-12-05T01:12:17.270Z,10.60
2018-12-05T01:15:20.402Z,18.33
2018-12-05T01:18:23.452Z,13.70
2018-12-05T01:21:26.589Z,7.07
2018-12-05T01:24:29.624Z,11.37
2018-12-05T01:27:33.072Z,10.33
2018-12-05T01:30:36.119Z,19.67
2018-12-05T01:33:39.375Z,15.90
2018-12-05T01:36:42.411Z,11.63
2018-12-05T01:39:45.547Z,17.03
2018-12-05T01:42:48.597Z,15.60
2018-12-05T01:45:52.267Z,15.10
2018-12-05T01:48:55.314Z,19.83
2018-12-05T01:51:58.475Z,13.07
2018-12-05T01:55:01.459Z,6.53
2018-12-05T01:58:04.735Z,9.70
2018-12-05T02:01:07.759Z,11.17
2018-12-05T02:04:11.103Z,23.37
2018-12-05T02:07:14.253Z,17.97
2018-12-05T02:10:17.331Z,10.63
2018-12-05T02:13:20.486Z,7.17
2018-12-05T02:16:23.675Z,13.97
2018-12-05T02:19:26.723Z,16.70
2018-12-05T02:22:29.964Z,13.30
2018-12-05T02:25:33.014Z,15.03
2018-12-05T02:28:36.248Z,19.50
2018-12-05T02:31:39.308Z,15.80
2018-12-05T02:34:42.433Z,33.07
2018-12-05T02:37:45.484Z,14.53
2018-12-05T02:40:48.619Z,25.83
2018-12-05T02:43:51.771Z,19.37
2018-12-05T02:46:54.907Z,15.47
2018-12-05T02:49:57.955Z,16.40
2018-12-05T02:53:01.296Z,22.30
2018-12-05T02:56:04.345Z,18.43
2018-12-05T02:59:07.455Z,20.13
2018-12-05T03:02:10.430Z,17.27
2018-12-05T03:05:13.555Z,14.73
2018-12-05T03:08:16.612Z,12.13
2018-12-05T03:11:19.603Z,13.90
2018-12-05T03:14:22.595Z,13.83
2018-12-05T03:17:25.579Z,11.33
2018-12-05T03:20:28.576Z,20.27
2018-12-05T03:23:31.566Z,13.57
2018-12-05T03:26:34.550Z,17.53
2018-12-05T03:29:37.539Z,15.70
2018-12-05T03:32:40.538Z,10.57
2018-12-05T03:35:43.523Z,21.53
2018-12-05T03:38:46.508Z,11.37
2018-12-05T03:41:49.556Z,16.57
2018-12-05T03:44:52.591Z,19.73
2018-12-05T03:47:55.591Z,15.87
2018-12-05T03:50:58.576Z,18.90
2018-12-05T03:54:01.560Z,11.23
2018-12-05T03:57:04.555Z,22.43
2018-12-05T04:00:07.857Z,22.47
2018-12-05T04:03:10.841Z,12.67
2018-12-05T04:06:13.834Z,15.67
2018-12-05T04:09:16.803Z,22.53
2018-12-05T04:12:19.811Z,16.73
2018-12-05T04:15:23.012Z,12.43
2018-12-05T04:18:26.005Z,15.17
2018-12-05T04:21:28.981Z,12.23
2018-12-05T04:24:31.972Z,13.23
2018-12-05T04:27:34.963Z,15.53
2018-12-05T04:30:37.951Z,15.33
2018-12-05T04:33:40.928Z,11.97
2018-12-05T04:36:43.932Z,16.07
2018-12-05T04:39:47.743Z,29.93
2018-12-05T04:42:50.824Z,22.93
2018-12-05T04:45:53.823Z,28.50
2018-12-05T04:48:56.816Z,28.57
2018-12-05T04:51:59.804Z,22.80
2018-12-05T04:55:02.895Z,14.30
2018-12-05T04:58:05.894Z,13.13
2018-12-05T05:01:08.984Z,17.60
2018-12-05T05:04:11.971Z,15.90
2018-12-05T05:07:14.959Z,20.97
2018-12-05T05:10:17.947Z,15.73
2018-12-05T05:13:20.924Z,20.40
2018-12-05T05:16:23.927Z,14.47
2018-12-05T05:19:26.952Z,21.87
2018-12-05T05:22:30.015Z,20.40
2018-12-05T05:25:32.999Z,25.80
2018-12-05T05:28:35.989Z,21.90
2018-12-05T05:31:38.980Z,22.20
2018-12-05T05:34:41.973Z,16.57
2018-12-05T05:37:44.959Z,20.33
2018-12-05T05:40:47.952Z,15.20
2018-12-05T05:43:51.043Z,17.47
2018-12-05T05:46:54.135Z,24.90
2018-12-05T05:49:57.124Z,23.67
2018-12-05T05:53:00.115Z,17.97
2018-12-05T05:56:03.110Z,20.90
2018-12-05T05:59:06.193Z,30.50
2018-12-05T06:02:09.291Z,22.90
2018-12-05T06:05:12.383Z,18.07
2018-12-05T06:08:15.475Z,24.20
2018-12-05T06:11:18.468Z,23.30
2018-12-05T06:14:21.525Z,16.20
2018-12-05T06:17:24.527Z,13.30
2018-12-05T06:20:27.609Z,17.53
2018-12-05T06:23:30.631Z,22.60
2018-12-05T06:26:33.652Z,16.10
2018-12-05T06:29:36.712Z,22.20
2018-12-05T06:32:39.872Z,17.50
2018-12-05T06:35:42.896Z,19.37
2018-12-05T06:38:46.032Z,28.23
2018-12-05T06:41:49.079Z,16.13
2018-12-05T06:44:52.320Z,16.47
2018-12-05T06:47:55.391Z,13.53
2018-12-05T06:50:58.435Z,20.20
2018-12-05T06:54:01.539Z,21.57
2018-12-05T06:57:04.684Z,16.53
2018-12-05T07:00:08.308Z,19.17
2018-12-05T07:03:11.371Z,18.40
2018-12-05T07:06:14.661Z,13.67
2018-12-05T07:09:17.663Z,21.60
2018-12-05T07:12:20.719Z,21.87
2018-12-05T07:15:23.756Z,25.70
2018-12-05T07:18:26.799Z,21.50
2018-12-05T07:21:30.099Z,18.10
2018-12-05T07:24:33.094Z,26.27
2018-12-05T07:27:36.126Z,21.10
2018-12-05T07:30:39.879Z,28.47
2018-12-05T07:33:42.918Z,32.90
2018-12-05T07:36:45.870Z,28.57
2018-12-05T07:39:48.899Z,34.00
2018-12-05T07:42:51.958Z,23.23
2018-12-05T07:45:55.010Z,28.53
2018-12-05T07:48:58.037Z,37.17
2018-12-05T07:52:01.078Z,43.03
2018-12-05T07:55:04.535Z,23.57
2018-12-05T07:58:08.515Z,31.40
2018-12-05T08:01:11.534Z,20.10
2018-12-05T08:04:14.601Z,29.13
2018-12-05T08:07:17.701Z,19.43
2018-12-05T08:10:20.782Z,28.27
2018-12-05T08:13:24.720Z,20.97
2018-12-05T08:16:28.887Z,18.47
2018-12-05T08:19:31.935Z,16.23
2018-12-05T08:22:35.176Z,18.03
2018-12-05T08:25:38.222Z,25.00
2018-12-05T08:28:41.243Z,36.17
2018-12-05T08:31:44.238Z,37.77
2018-12-05T08:34:47.346Z,32.43
2018-12-05T08:37:50.390Z,33.27
2018-12-05T08:40:53.494Z,20.60
2018-12-05T08:43:56.474Z,32.00
2018-12-05T08:46:59.505Z,33.67
2018-12-05T08:50:02.655Z,25.33
2018-12-05T08:53:06.002Z,28.30
2018-12-05T08:56:09.050Z,30.53
2018-12-05T08:59:12.190Z,23.60
2018-12-05T09:02:15.215Z,33.30
2018-12-05T09:05:18.369Z,30.60
2018-12-05T09:08:21.414Z,32.73
2018-12-05T09:11:24.553Z,18.83
2018-12-05T09:14:28.854Z,26.60
2018-12-05T09:17:32.278Z,30.57
2018-12-05T09:20:35.231Z,33.37
2018-12-05T09:23:39.154Z,25.97
2018-12-05T09:26:42.230Z,45.13
2018-12-05T09:29:45.446Z,32.90
2018-12-05T09:32:48.717Z,28.87
2018-12-05T09:35:51.859Z,32.33
2018-12-05T09:38:54.905Z,33.27
2018-12-05T09:41:57.939Z,29.97
2018-12-05T09:45:00.994Z,27.70
2018-12-05T09:48:04.177Z,22.67
2018-12-05T09:51:07.172Z,26.03
2018-12-05T09:54:10.198Z,17.17
2018-12-05T09:57:13.156Z,23.70
2018-12-05T10:00:16.254Z,17.33
2018-12-05T10:03:19.354Z,23.57
2018-12-05T10:06:22.402Z,20.60
2018-12-05T10:09:25.458Z,21.77
2018-12-05T10:12:28.690Z,18.60
2018-12-05T10:15:32.738Z,20.13
2018-12-05T10:18:35.871Z,23.77
2018-12-05T10:21:38.818Z,22.03
2018-12-05T10:24:42.053Z,31.50
2018-12-05T10:27:45.002Z,15.53
2018-12-05T10:30:48.030Z,17.13
2018-12-05T10:33:52.046Z,17.93
2018-12-05T10:36:56.345Z,17.33
2018-12-05T10:39:59.428Z,21.03
2018-12-05T10:43:02.817Z,19.00
2018-12-05T10:46:05.815Z,22.47
2018-12-05T10:49:09.043Z,14.97
2018-12-05T10:52:11.999Z,16.17
2018-12-05T10:55:15.019Z,14.27
2018-12-05T10:58:18.091Z,17.30
2018-12-05T11:01:26.470Z,14.03
2018-12-05T11:04:34.815Z,20.83
2018-12-05T11:07:43.339Z,18.90
2018-12-05T11:10:51.985Z,11.48
2018-12-05T11:14:00.563Z,20.43
2018-12-05T11:17:09.058Z,11.90
2018-12-05T11:20:17.953Z,14.20
2018-12-05T11:23:29.182Z,17.25
2018-12-05T11:26:41.524Z,17.70
2018-12-05T11:29:46.411Z,14.15
2018-12-05T11:32:49.682Z,17.65
2018-12-05T11:35:53.042Z,13.62
2018-12-05T11:38:57.164Z,16.95
2018-12-05T11:42:02.672Z,15.90
2018-12-05T11:45:07.680Z,17.17
2018-12-05T11:48:12.271Z,11.33
2018-12-05T11:51:16.721Z,13.45
2018-12-05T11:54:20.913Z,16.40
2018-12-05T11:57:25.567Z,16.82
2018-12-05T12:00:29.962Z,14.53
2018-12-05T12:03:34.600Z,13.08
2018-12-05T12:06:41.979Z,23.15
2018-12-05T12:09:46.235Z,11.93
2018-12-05T12:13:05.960Z,13.68
2018-12-05T12:16:10.126Z,18.77
2018-12-05T12:19:13.211Z,17.27
2018-12-05T12:22:16.198Z,17.27
2018-12-05T12:25:19.196Z,12.30
2018-12-05T12:28:22.183Z,12.35
2018-12-05T12:31:25.174Z,19.82
2018-12-05T12:34:28.167Z,10.70
2018-12-05T12:37:31.153Z,14.78
2018-12-05T12:40:34.246Z,14.00
2018-12-05T12:43:37.238Z,9.48
2018-12-05T12:46:40.230Z,16.85
2018-12-05T12:49:43.214Z,13.83
2018-12-05T12:52:46.211Z,12.53
2018-12-05T12:55:49.204Z,10.63
2018-12-05T12:58:52.278Z,9.98
2018-12-05T13:01:58.544Z,14.80
2018-12-05T13:05:04.829Z,16.02
2018-12-05T13:08:11.595Z,15.00
2018-12-05T13:11:16.160Z,11.73
2018-12-05T13:14:20.930Z,18.92
2018-12-05T13:17:26.991Z,14.65
2018-12-05T13:20:38.359Z,11.80
2018-12-05T13:23:41.401Z,12.00
2018-12-05T13:26:44.390Z,11.38
2018-12-05T13:29:47.386Z,9.70
2018-12-05T13:32:50.370Z,13.38
2018-12-05T13:35:53.364Z,15.65
2018-12-05T13:38:56.562Z,15.17
2018-12-05T13:41:59.550Z,13.10
2018-12-05T13:45:02.543Z,9.30
2018-12-05T13:48:06.175Z,14.67
2018-12-05T13:51:09.137Z,15.13
2018-12-05T13:54:12.122Z,10.70
2018-12-05T13:57:15.120Z,12.20
2018-12-05T14:00:18.107Z,14.83
2018-12-05T14:03:21.074Z,15.30
2018-12-05T14:06:24.187Z,8.97
2018-12-05T14:09:27.193Z,10.27
2018-12-05T14:12:34.602Z,13.73
2018-12-05T14:15:37.562Z,16.17
2018-12-05T14:18:40.555Z,11.40
2018-12-05T14:21:43.546Z,9.20
2018-12-05T14:24:47.251Z,17.17
2018-12-05T14:27:50.342Z,15.10
2018-12-05T14:30:53.335Z,16.83
2018-12-05T14:33:56.302Z,18.57
2018-12-05T14:36:59.379Z,10.97
2018-12-05T14:40:03.480Z,15.87
2018-12-05T14:43:06.454Z,17.23
2018-12-05T14:46:09.434Z,13.93
2018-12-05T14:49:12.829Z,17.50
2018-12-05T14:52:17.422Z,20.07
2018-12-05T14:55:22.438Z,19.73
2018-12-05T14:58:28.011Z,23.80
2018-12-05T15:01:33.994Z,15.27
2018-12-05T15:04:37.013Z,13.00
2018-12-05T15:07:40.103Z,16.30
2018-12-05T15:10:43.111Z,18.73
2018-12-05T15:13:46.114Z,20.40
2018-12-05T15:16:49.074Z,23.90
2018-12-05T15:19:52.154Z,16.67
2018-12-05T15:22:55.159Z,15.43
2018-12-05T15:25:58.150Z,15.30
2018-12-05T15:29:01.135Z,15.90
2018-12-05T15:32:04.139Z,12.13
2018-12-05T15:35:07.760Z,20.80
2018-12-05T15:38:10.732Z,17.43
2018-12-05T15:41:13.715Z,18.03
2018-12-05T15:44:16.707Z,11.37
2018-12-05T15:47:19.675Z,21.23
2018-12-05T15:50:22.687Z,16.67
2018-12-05T15:53:25.674Z,18.77
2018-12-05T15:56:28.705Z,17.17
2018-12-05T15:59:31.754Z,13.43
2018-12-05T16:02:34.899Z,21.80
2018-12-05T16:05:38.076Z,33.30
2018-12-05T16:08:41.221Z,24.97
2018-12-05T16:11:44.372Z,23.77
2018-12-05T16:14:47.575Z,28.40
2018-12-05T16:17:50.679Z,37.80
2018-12-05T16:20:53.905Z,34.33
2018-12-05T16:23:57.050Z,37.20
2018-12-05T16:27:00.517Z,33.47
2018-12-05T16:30:04.050Z,27.10
2018-12-05T16:33:07.491Z,25.90
2018-12-05T16:36:11.176Z,27.83
2018-12-05T16:39:14.724Z,48.73
2018-12-05T16:42:18.067Z,46.93
2018-12-05T16:45:21.169Z,37.90
2018-12-05T16:48:24.333Z,39.33
2018-12-05T16:51:27.447Z,35.67
2018-12-05T16:54:33.140Z,43.57
2018-12-05T16:57:36.287Z,44.60
2018-12-05T17:00:39.247Z,43.13
2018-12-05T17:03:42.387Z,39.70
2018-12-05T17:06:45.436Z,38.43
2018-12-05T17:09:48.467Z,38.87
2018-12-05T17:12:51.718Z,38.13
2018-12-05T17:15:54.965Z,38.47
2018-12-05T17:18:58.110Z,36.97
2018-12-05T17:22:01.168Z,40.00
2018-12-05T17:25:04.805Z,34.43
2018-12-05T17:28:07.827Z,44.27
2018-12-05T17:31:10.882Z,29.53
2018-12-05T17:34:13.916Z,43.57
2018-12-05T17:37:17.039Z,135.53
2018-12-05T17:40:20.091Z,61.93
2018-12-05T17:43:23.056Z,33.13
2018-12-05T17:46:26.086Z,39.20
2018-12-05T17:49:29.151Z,75.20
2018-12-05T17:52:32.376Z,74.37
2018-12-05T17:55:35.435Z,50.90
2018-12-05T17:58:38.562Z,58.33
2018-12-05T18:01:41.619Z,41.23
2018-12-05T18:04:44.626Z,35.17
2018-12-05T18:07:47.590Z,34.70
2018-12-05T18:10:50.643Z,31.70
2018-12-05T18:13:53.834Z,33.77
2018-12-05T18:16:56.994Z,35.23
2018-12-05T18:20:00.046Z,36.30
2018-12-05T18:23:03.079Z,35.33
2018-12-05T18:26:06.513Z,36.37
2018-12-05T18:29:09.682Z,32.20
2018-12-05T18:32:12.742Z,38.33
2018-12-05T18:35:16.078Z,39.50
2018-12-05T18:38:19.039Z,23.80
2018-12-05T18:41:22.862Z,30.13
2018-12-05T18:44:25.830Z,37.27
2018-12-05T18:47:28.947Z,42.83
2018-12-05T18:50:31.995Z,31.47
2018-12-05T18:53:35.047Z,30.87
2018-12-05T18:56:38.230Z,38.80
2018-12-05T18:59:41.252Z,26.20
2018-12-05T19:02:44.362Z,39.90
2018-12-05T19:05:47.659Z,44.23
2018-12-05T19:08:50.712Z,36.13
2018-12-05T19:11:53.794Z,38.03
2018-12-05T19:14:56.964Z,43.30
2018-12-05T19:18:00.411Z,37.70
2018-12-05T19:21:03.663Z,40.13
2018-12-05T19:24:07.067Z,34.40
2018-12-05T19:27:10.051Z,42.90
2018-12-05T19:30:14.823Z,38.50
2018-12-05T19:33:17.882Z,32.53
2018-12-05T19:36:21.219Z,37.40
2018-12-05T19:39:24.372Z,33.03
2018-12-05T19:42:27.805Z,39.47
2018-12-05T19:45:30.897Z,34.80
2018-12-05T19:48:34.804Z,45.37
2018-12-05T19:51:38.049Z,48.07
2018-12-05T19:54:41.597Z,46.63
2018-12-05T19:57:45.127Z,46.10
2018-12-05T20:00:48.814Z,49.80
2018-12-05T20:03:52.644Z,47.27
2018-12-05T20:06:56.195Z,43.47
2018-12-05T20:09:59.666Z,40.00
2018-12-05T20:13:05.243Z,48.23
2018-12-05T20:16:08.571Z,52.60
2018-12-05T20:19:11.879Z,50.73
2018-12-05T20:22:15.274Z,55.27
2018-12-05T20:25:19.465Z,49.40
2018-12-05T20:28:22.875Z,46.60
2018-12-05T20:31:26.237Z,43.80
2018-12-05T20:34:29.406Z,60.67
2018-12-05T20:37:33.069Z,55.07
2018-12-05T20:40:36.168Z,53.80
2018-12-05T20:43:39.454Z,64.53
2018-12-05T20:46:43.282Z,62.93
2018-12-05T20:49:47.002Z,67.17
2018-12-05T20:52:50.163Z,46.17
2018-12-05T20:55:53.606Z,53.27
2018-12-05T20:58:57.116Z,56.93
2018-12-05T21:02:00.330Z,40.53
2018-12-05T21:05:04.726Z,42.13
2018-12-05T21:08:08.238Z,50.37
2018-12-05T21:11:11.853Z,40.70
2018-12-05T21:14:15.106Z,48.23
2018-12-05T21:17:18.057Z,47.97
2018-12-05T21:20:21.414Z,45.10
2018-12-05T21:23:25.455Z,56.60
2018-12-05T21:26:29.625Z,50.10
2018-12-05T21:29:33.353Z,43.63
2018-12-05T21:32:37.622Z,43.50
2018-12-05T21:35:41.147Z,45.70
2018-12-05T21:38:44.278Z,43.57
2018-12-05T21:41:47.870Z,48.90
2018-12-05T21:44:50.899Z,41.13
2018-12-05T21:47:53.914Z,40.83
2018-12-05T21:50:57.041Z,39.17
2018-12-05T21:54:00.110Z,40.73
2018-12-05T21:57:03.138Z,35.47
2018-12-05T22:00:09.411Z,51.80
2018-12-05T22:03:12.802Z,47.77
2018-12-05T22:06:15.855Z,39.87
2018-12-05T22:09:18.876Z,37.90
2018-12-05T22:12:21.837Z,31.40
2018-12-05T22:15:24.973Z,42.93
2018-12-05T22:18:28.018Z,33.93
2018-12-05T22:21:31.154Z,23.77
2018-12-05T22:24:34.098Z,31.00
2018-12-05T22:27:37.234Z,19.17
2018-12-05T22:30:40.286Z,41.77
2018-12-05T22:33:43.302Z,31.27
2018-12-05T22:36:46.470Z,34.77
2018-12-05T22:39:49.490Z,37.40
2018-12-05T22:42:52.550Z,42.50
2018-12-05T22:45:55.894Z,51.20
2018-12-05T22:48:59.042Z,33.27
2018-12-05T22:52:02.283Z,31.93
2018-12-05T22:55:05.637Z,51.20
2018-12-05T22:58:08.609Z,41.87
2018-12-05T23:01:11.722Z,34.77
2018-12-05T23:04:14.714Z,26.03
2018-12-05T23:07:17.703Z,38.63
2018-12-05T23:10:20.701Z,37.73
2018-12-05T23:13:23.663Z,32.67
2018-12-05T23:16:26.670Z,42.70
2018-12-05T23:19:29.786Z,22.90
2018-12-05T23:22:32.754Z,23.03
2018-12-05T23:25:35.746Z,27.40
2018-12-05T23:28:38.743Z,38.37
2018-12-05T23:31:41.830Z,33.07
2018-12-05T23:34:44.824Z,25.17
2018-12-05T23:37:47.814Z,26.90
2018-12-05T23:40:51.682Z,26.73
2018-12-05T23:43:54.716Z,22.40
2018-12-05T23:46:57.712Z,24.33
2018-12-05T23:50:00.695Z,21.83
2018-12-05T23:53:03.683Z,27.97
2018-12-05T23:56:06.654Z,22.63
2018-12-05T23:59:09.662Z,23.40
